Accueil
METAR-TAF:

METAR-TAF

Aéroports :

Aéroport de Milan-Linate

Milan, Italie

latitude: 45-26N, longitude: 009-17E, altitude: 107 m

Observation

Le bulletin a été fait il y a 10 minutes, à 02:50 UTC
Vent 3 kt de nord
Température 11°C
Humidité 76%
Pression 1023 hPa
Visibilité 10 km ou plus
Nuages épars à une hauteur de 6000 ft

METAR: LIML 220250Z 36003KT 9999 SCT060 11/07 Q1023 NOSIG

Heure: 05:00 (03:00 UTC)

Prévision

Le bulletin a été fait il y a 4 heures et 0 minutes, à 23:00 UTC
Prévision valable du 22 à 00 UTC au 22 à 24 UTC
Vent 5 kt de direction variable
Visibilité: 7000 m
Nuages épars à une hauteur de 5000 ft
Temporairement
du 22 à 03 UTC au 22 à 07 UTC
Visibilité: 3000 m
brume

TAF: LIML 212300Z 2200/2224 VRB05KT 7000 SCT050 TEMPO 2203/2207 3000 BR

Observations et prévisions météorologiques de plus de 4000 aéroports (messages METAR et TAF).

Les stations disponibles sont représentées par des disques jaunes et rouges sur la carte.

Passer la souris dessus pour voir le nom de la station.

Cliquer dessus pour voir les observations et prévisions météorologiques.

Pour changer de carte: cliquez sur les boutons verts avec une croix noire pour zoomer, sur le bouton vert avec un tiret pour effectuer un zoom arrière, ou sur les flèches vertes pour les cartes adjacentes.


METAR-TAF: